Time;durP1;ratioP1;P1;durP2;ratioP2;P2;SDS_P1;SDS_P2;PMS_P1;PMS_P2;Temp;Humidity;BMP_temperature;BMP_pressure;BME280_temperature;BME280_humidity;BME280_pressure;Samples;Min_cycle;Max_cycle;Signal;HPM_P1;HPM_P2
2022/06/20 00:00:23;;;;;;;3.53;1.83;;;;;;;20.82;54.87;99627.69;4477757;31;32971;-85
2022/06/20 00:02:54;;;;;;;4.68;1.90;;;;;;;20.76;54.86;99620.19;4477930;31;33732;-84
2022/06/20 00:05:29;;;;;;;3.90;2.25;;;;;;;20.73;54.95;99620.47;4478850;31;34510;-84
2022/06/20 00:07:57;;;;;;;2.62;1.62;;;;;;;20.64;55.19;99616.75;4478089;31;32672;-84
2022/06/20 00:10:28;;;;;;;3.12;2.17;;;;;;;20.78;54.72;99612.84;4462957;31;33995;-82
2022/06/20 00:12:58;;;;;;;3.60;2.20;;;;;;;20.69;54.73;99609.12;4479052;31;33227;-82
2022/06/20 00:15:29;;;;;;;3.25;2.05;;;;;;;20.57;55.17;99613.78;4476552;31;33795;-83
2022/06/20 00:17:59;;;;;;;4.20;1.60;;;;;;;20.66;54.96;99607.59;4467399;31;32277;-83
2022/06/20 00:20:27;;;;;;;3.50;1.92;;;;;;;20.70;54.83;99597.44;4478581;31;34205;-82
2022/06/20 00:22:56;;;;;;;3.53;1.90;;;;;;;20.67;54.83;99598.56;4465609;31;33563;-83
2022/06/20 00:25:24;;;;;;;3.50;2.12;;;;;;;20.79;54.42;99598.44;4489864;31;33754;-82
2022/06/20 00:27:56;;;;;;;4.25;2.10;;;;;;;20.65;54.31;99594.28;4489774;31;33224;-82
2022/06/20 00:30:24;;;;;;;2.65;2.20;;;;;;;20.63;54.44;99596.28;4466123;31;34080;-83
2022/06/20 00:32:52;;;;;;;3.42;2.25;;;;;;;20.38;55.61;99603.78;4463475;31;32426;-83
2022/06/20 00:35:20;;;;;;;4.80;2.10;;;;;;;20.40;55.60;99596.44;4460816;31;33630;-83
2022/06/20 00:37:48;;;;;;;2.85;2.33;;;;;;;20.47;55.33;99596.78;4477746;31;32670;-83
2022/06/20 00:40:21;;;;;;;2.85;2.15;;;;;;;20.44;55.35;99595.19;4486401;31;33897;-83
2022/06/20 00:42:50;;;;;;;2.17;1.77;;;;;;;20.45;55.49;99598.72;4479990;31;33447;-82
2022/06/20 00:45:40;;;;;;;2.37;2.17;;;;;;;20.39;55.60;99589.37;4479963;31;34440;-83
2022/06/20 00:48:33;;;;;;;2.42;1.60;;;;;;;20.40;55.79;99591.06;4490306;31;35077;-82
2022/06/20 00:51:22;;;;;;;2.92;2.65;;;;;;;20.42;55.58;99588.28;4489170;31;34319;-82
2022/06/20 00:54:30;;;;;;;3.83;1.90;;;;;;;20.30;55.68;99583.97;4491850;31;35876;-82
2022/06/20 00:57:32;;;;;;;2.08;1.92;;;;;;;20.18;56.13;99577.88;4490249;31;34615;-84
2022/06/20 01:00:23;;;;;;;2.70;2.03;;;;;;;20.21;55.81;99570.38;4480483;31;34109;-82
2022/06/20 01:03:13;;;;;;;3.53;2.08;;;;;;;20.30;55.21;99566.06;4489293;31;34630;-82
2022/06/20 01:06:14;;;;;;;2.78;2.00;;;;;;;20.18;55.44;99569.81;4478666;31;34685;-83
2022/06/20 01:09:09;;;;;;;2.92;2.20;;;;;;;20.01;56.02;99568.59;4488682;31;34485;-85
2022/06/20 01:11:58;;;;;;;2.50;2.20;;;;;;;20.14;55.48;99566.56;4481582;31;35044;-83
2022/06/20 01:14:52;;;;;;;3.80;2.30;;;;;;;20.02;56.11;99569.44;4481723;31;34342;-85
2022/06/20 01:17:39;;;;;;;2.30;1.90;;;;;;;20.11;55.63;99566.81;4479156;31;34462;-82
2022/06/20 01:20:27;;;;;;;2.97;2.60;;;;;;;20.01;56.13;99557.88;4483194;31;35428;-82
2022/06/20 01:23:28;;;;;;;3.37;2.37;;;;;;;19.98;56.03;99551.91;4481532;31;34013;-82
2022/06/20 01:26:20;;;;;;;4.20;2.42;;;;;;;19.92;56.33;99547.94;4484619;31;34602;-84
2022/06/20 01:29:10;;;;;;;3.87;2.22;;;;;;;19.78;56.78;99541.09;4490463;31;34767;-83
2022/06/20 01:31:56;;;;;;;4.57;2.50;;;;;;;19.82;56.58;99539.00;4485045;31;34457;-83
2022/06/20 01:34:43;;;;;;;2.70;2.28;;;;;;;19.77;56.82;99533.19;4481328;31;33913;-82
2022/06/20 01:37:32;;;;;;;2.33;2.08;;;;;;;19.67;56.92;99527.78;4480585;31;34626;-82
2022/06/20 01:40:20;;;;;;;2.53;2.33;;;;;;;19.71;56.86;99534.59;4492607;31;34712;-82
2022/06/20 01:43:07;;;;;;;3.20;2.90;;;;;;;19.72;56.77;99532.75;4476876;31;35401;-84
2022/06/20 01:45:59;;;;;;;5.35;2.72;;;;;;;19.71;56.89;99539.09;4477956;31;33986;-82
2022/06/20 01:48:50;;;;;;;2.75;2.15;;;;;;;19.63;57.40;99529.03;4489818;31;34574;-82
2022/06/20 01:51:47;;;;;;;2.30;2.10;;;;;;;19.50;57.77;99528.34;4491934;31;34724;-84
2022/06/20 01:54:39;;;;;;;3.47;2.40;;;;;;;19.54;57.47;99535.13;4489632;31;34094;-84
2022/06/20 01:57:27;;;;;;;2.70;2.40;;;;;;;19.54;57.29;99535.97;4489844;31;34102;-84
2022/06/20 02:00:17;;;;;;;3.95;2.60;;;;;;;19.42;57.59;99529.84;4483385;31;34630;-83
2022/06/20 02:03:08;;;;;;;2.45;1.77;;;;;;;19.46;57.47;99530.41;4481859;31;34759;-83
2022/06/20 02:05:55;;;;;;;3.87;2.05;;;;;;;19.38;57.75;99532.91;4485197;31;35297;-83
2022/06/20 02:08:47;;;;;;;5.90;2.75;;;;;;;19.46;57.52;99517.03;4495358;31;34266;-83
2022/06/20 02:11:35;;;;;;;2.80;2.35;;;;;;;19.34;57.97;99510.91;4480284;31;35582;-83
2022/06/20 02:14:29;;;;;;;2.87;2.40;;;;;;;19.33;58.05;99505.69;4491693;31;34780;-83
2022/06/20 02:17:36;;;;;;;2.55;2.35;;;;;;;19.34;57.98;99499.34;4490128;31;34563;-82
2022/06/20 02:20:26;;;;;;;2.85;2.58;;;;;;;19.30;58.04;99503.25;4490383;31;34084;-82
2022/06/20 02:23:18;;;;;;;2.65;2.45;;;;;;;19.16;58.57;99505.25;4488990;31;34532;-82
2022/06/20 02:26:06;;;;;;;2.45;1.98;;;;;;;19.30;58.19;99492.56;4480931;31;35670;-82
2022/06/20 02:29:01;;;;;;;4.47;2.53;;;;;;;19.28;58.05;99494.53;4488422;31;34486;-82
2022/06/20 02:32:17;;;;;;;4.30;2.65;;;;;;;19.24;58.14;99495.75;4494333;31;34098;-83
2022/06/20 02:35:06;;;;;;;2.72;2.53;;;;;;;19.14;58.65;99493.00;4492226;31;34556;-82
2022/06/20 02:37:52;;;;;;;2.90;2.30;;;;;;;18.92;59.53;99491.25;4480414;31;34195;-83
2022/06/20 02:40:42;;;;;;;5.18;2.78;;;;;;;19.00;59.27;99483.47;4492418;31;34547;-83
2022/06/20 02:43:49;;;;;;;5.72;2.55;;;;;;;19.17;58.56;99488.22;4491001;31;34151;-83
2022/06/20 02:46:36;;;;;;;4.53;2.60;;;;;;;18.94;59.38;99489.28;4484527;31;34570;-82
2022/06/20 02:49:25;;;;;;;5.05;2.75;;;;;;;18.87;59.85;99496.16;4493096;31;34751;-83
2022/06/20 02:52:16;;;;;;;2.35;2.05;;;;;;;18.97;59.46;99489.06;4489137;31;34014;-83
2022/06/20 02:55:04;;;;;;;2.87;2.55;;;;;;;18.93;59.33;99495.63;4484008;31;32913;-83
2022/06/20 02:57:54;;;;;;;2.72;2.17;;;;;;;18.98;59.16;99492.56;4479104;31;34557;-83
2022/06/20 03:00:37;;;;;;;2.47;2.28;;;;;;;18.97;59.21;99486.38;4491948;31;35808;-84
2022/06/20 03:03:29;;;;;;;2.60;2.35;;;;;;;18.85;59.58;99503.47;4492346;31;34501;-85
2022/06/20 03:06:26;;;;;;;5.40;2.50;;;;;;;18.89;59.57;99495.03;4493085;31;34908;-85
2022/06/20 03:09:14;;;;;;;3.33;2.72;;;;;;;18.82;60.04;99487.66;4490947;31;34579;-85
2022/06/20 03:12:03;;;;;;;4.87;2.75;;;;;;;18.76;60.30;99483.66;4480335;31;34791;-85
2022/06/20 03:14:52;;;;;;;3.80;2.60;;;;;;;18.76;60.52;99490.84;4483117;31;34935;-84
2022/06/20 03:17:40;;;;;;;5.97;2.80;;;;;;;18.84;60.14;99483.00;4491091;31;34073;-84
2022/06/20 03:20:27;;;;;;;6.18;3.33;;;;;;;18.75;60.31;99487.28;4478167;31;35488;-85
2022/06/20 03:23:34;;;;;;;3.10;2.78;;;;;;;18.71;60.92;99485.03;4480666;31;35688;-85
2022/06/20 03:26:25;;;;;;;4.07;3.20;;;;;;;18.85;60.48;99482.06;4488200;31;35453;-85
2022/06/20 03:29:14;;;;;;;6.47;2.60;;;;;;;18.79;60.67;99479.88;4488924;31;33647;-85
2022/06/20 03:32:00;;;;;;;8.18;3.53;;;;;;;18.95;60.50;99480.31;4493370;31;35517;-85
2022/06/20 03:34:47;;;;;;;3.35;3.03;;;;;;;19.00;60.78;99480.78;4480512;31;34309;-85
2022/06/20 03:37:33;;;;;;;5.00;2.70;;;;;;;18.91;61.39;99478.88;4480697;31;34290;-86
2022/06/20 03:40:19;;;;;;;4.93;2.70;;;;;;;19.04;61.06;99471.53;4480839;31;33683;-83
2022/06/20 03:43:08;;;;;;;7.43;3.33;;;;;;;19.15;61.01;99467.94;4491163;31;34642;-83
2022/06/20 03:45:58;;;;;;;5.35;2.75;;;;;;;19.52;59.82;99471.00;4480300;31;35709;-83
2022/06/20 03:48:56;;;;;;;3.53;3.05;;;;;;;19.73;59.48;99472.84;4480475;31;33365;-84
2022/06/20 03:52:12;;;;;;;4.40;3.37;;;;;;;19.61;59.47;99464.88;4478426;31;35220;-85
2022/06/20 03:55:12;;;;;;;6.47;2.62;;;;;;;19.52;60.03;99467.47;4480483;31;34631;-84
2022/06/20 03:58:25;;;;;;;7.10;2.90;;;;;;;19.34;60.59;99472.56;4489323;31;35688;-84
2022/06/20 04:01:17;;;;;;;3.80;3.03;;;;;;;19.71;59.90;99469.44;4479230;31;34602;-84
2022/06/20 04:07:18;;;;;;;4.40;2.95;;;;;;;19.74;60.54;99470.00;4491110;31;35534;-84
2022/06/20 04:13:32;;;;;;;3.40;2.70;;;;;;;20.53;57.99;99472.88;4488775;31;35061;-84
2022/06/20 04:16:31;;;;;;;4.05;3.12;;;;;;;20.59;57.41;99479.50;4492287;31;34745;-85
2022/06/20 04:19:23;;;;;;;6.32;3.83;;;;;;;20.73;56.40;99476.41;4481222;31;34556;-84
2022/06/20 04:22:14;;;;;;;3.90;2.62;;;;;;;20.89;56.38;99473.19;4481325;31;34669;-85
2022/06/20 04:25:23;;;;;;;8.32;3.47;;;;;;;21.08;56.32;99475.87;4490216;31;34518;-84
2022/06/20 04:28:27;;;;;;;4.03;3.22;;;;;;;21.18;56.68;99468.66;4491829;31;34995;-85
2022/06/20 04:31:42;;;;;;;3.62;2.78;;;;;;;21.35;55.82;99464.41;4489323;31;34191;-84
2022/06/20 04:34:42;;;;;;;6.00;3.03;;;;;;;21.89;53.15;99462.03;4490733;31;33463;-84
2022/06/20 04:37:42;;;;;;;6.40;2.42;;;;;;;21.85;53.48;99463.31;4488292;31;32475;-82
2022/06/20 04:40:34;;;;;;;4.80;3.10;;;;;;;21.92;53.36;99461.72;4476982;31;33696;-84
2022/06/20 04:43:25;;;;;;;11.80;2.90;;;;;;;21.95;53.65;99461.44;4488154;31;35552;-83
2022/06/20 04:46:26;;;;;;;7.50;3.03;;;;;;;21.25;56.27;99473.44;4478475;31;33087;-83
2022/06/20 04:49:17;;;;;;;5.37;3.20;;;;;;;21.78;54.25;99464.88;4487513;31;34461;-83
2022/06/20 04:52:07;;;;;;;;;;;;;;;22.03;54.27;99458.84;4488951;31;33884;-83
2022/06/20 04:54:54;;;;;;;7.12;3.30;;;;;;;22.37;52.48;99464.50;4478578;31;34472;-83
2022/06/20 04:57:41;;;;;;;4.30;3.10;;;;;;;22.54;51.94;99460.13;4478188;31;35417;-84
2022/06/20 05:00:34;;;;;;;4.72;2.95;;;;;;;22.53;52.76;99457.63;4474883;31;33121;-83
2022/06/20 05:03:27;;;;;;;6.93;3.08;;;;;;;22.85;53.50;99457.94;4479979;31;34228;-82
2022/06/20 05:06:20;;;;;;;5.85;3.10;;;;;;;22.77;51.76;99451.63;4481290;31;34504;-81
2022/06/20 05:09:17;;;;;;;7.20;3.45;;;;;;;23.19;52.04;99452.72;4490128;31;35694;-82
2022/06/20 05:12:19;;;;;;;4.95;3.50;;;;;;;23.51;50.72;99456.66;4481269;31;34435;-84
2022/06/20 05:15:46;;;;;;;4.95;2.85;;;;;;;23.83;50.64;99455.19;4458727;32;34906;-84
2022/06/20 05:18:41;;;;;;;6.40;4.00;;;;;;;23.90;51.20;99457.09;4395667;32;34588;-81
2022/06/20 05:21:32;;;;;;;4.43;3.72;;;;;;;24.18;49.38;99455.03;4466609;32;34044;-81
2022/06/20 05:24:27;;;;;;;5.80;4.03;;;;;;;24.18;47.76;99459.59;4465679;32;34534;-81
2022/06/20 05:27:33;;;;;;;6.72;4.12;;;;;;;24.30;48.70;99462.81;4464657;32;33434;-81
2022/06/20 05:30:25;;;;;;;5.22;3.10;;;;;;;24.55;48.88;99463.78;4470801;32;37323;-83
2022/06/20 05:33:28;;;;;;;5.12;3.20;;;;;;;24.85;47.98;99467.72;4460219;32;34774;-84
2022/06/20 05:36:04;;;;;;;5.22;3.85;;;;;;;25.09;47.99;99459.66;4467432;32;35555;-83
2022/06/20 05:38:51;;;;;;;5.57;3.65;;;;;;;25.25;47.81;99465.06;4455261;32;32196;-83
2022/06/20 05:41:20;;;;;;;6.03;3.08;;;;;;;25.39;45.87;99462.69;4453714;32;33491;-83
2022/06/20 05:43:51;;;;;;;8.70;3.45;;;;;;;25.48;47.92;99469.78;4456024;32;32708;-84
2022/06/20 05:46:43;;;;;;;7.75;3.15;;;;;;;25.67;47.52;99461.31;4463803;32;33441;-84
2022/06/20 05:49:16;;;;;;;8.45;3.42;;;;;;;25.46;45.88;99456.44;4458796;32;33189;-84
2022/06/20 05:51:44;;;;;;;7.30;3.05;;;;;;;25.96;45.17;99451.78;4441362;32;32762;-84
2022/06/20 05:54:23;;;;;;;7.28;3.60;;;;;;;26.21;44.65;99456.09;4444110;32;32565;-84
2022/06/20 05:57:02;;;;;;;3.33;2.70;;;;;;;26.49;42.23;99451.09;4456160;32;34572;-84
2022/06/20 05:59:40;;;;;;;5.35;2.67;;;;;;;26.67;42.11;99458.09;4448595;32;34024;-84
2022/06/20 06:02:16;;;;;;;6.43;3.28;;;;;;;26.71;44.10;99468.37;4450743;32;34391;-84
2022/06/20 06:04:53;;;;;;;5.22;3.45;;;;;;;26.55;42.74;99463.06;4461703;32;33069;-84
2022/06/20 06:07:48;;;;;;;4.30;2.72;;;;;;;26.76;42.94;99462.44;4450588;32;33779;-84
2022/06/20 06:10:25;;;;;;;3.37;2.75;;;;;;;26.71;41.13;99462.13;4478290;32;33029;-82
2022/06/20 06:13:06;;;;;;;6.22;2.97;;;;;;;27.10;41.02;99461.19;4480594;31;36171;-82
2022/06/20 06:19:20;;;;;;;2.60;2.40;;;;;;;27.38;40.25;99454.19;4489796;31;34503;-83
2022/06/20 06:21:53;;;;;;;3.08;2.37;;;;;;;27.23;41.17;99450.59;4474863;31;34156;-83
2022/06/20 06:24:24;;;;;;;2.92;2.60;;;;;;;27.30;40.23;99449.69;4476660;31;33260;-84
2022/06/20 06:26:57;;;;;;;5.35;2.47;;;;;;;27.66;38.84;99448.16;4467429;31;34439;-84
2022/06/20 06:29:47;;;;;;;5.62;2.80;;;;;;;27.93;40.20;99447.53;4487104;31;33528;-84
2022/06/20 06:32:30;;;;;;;10.13;2.95;;;;;;;28.23;38.55;99440.19;4487282;31;35919;-83
2022/06/20 06:35:04;;;;;;;3.75;2.40;;;;;;;28.29;38.59;99441.31;4480986;31;32857;-83
2022/06/20 06:37:40;;;;;;;6.82;2.92;;;;;;;28.17;38.23;99438.25;4490361;31;34630;-83
2022/06/20 06:40:16;;;;;;;5.65;2.50;;;;;;;28.41;39.09;99439.00;4474108;31;32588;-82
2022/06/20 06:42:47;;;;;;;6.60;2.83;;;;;;;28.74;38.08;99444.81;4464667;31;32667;-82
2022/06/20 06:45:21;;;;;;;4.87;3.05;;;;;;;29.03;37.22;99447.44;4498753;31;32063;-82
2022/06/20 06:48:00;;;;;;;3.22;2.30;;;;;;;29.05;36.82;99436.34;4478597;31;34717;-82
2022/06/20 06:50:40;;;;;;;4.30;2.83;;;;;;;28.50;36.72;99437.84;4487646;31;33260;-84
2022/06/20 06:53:17;;;;;;;3.95;3.03;;;;;;;28.16;37.06;99447.44;4478948;31;33562;-84
2022/06/20 06:55:52;;;;;;;5.53;3.35;;;;;;;28.77;36.26;99450.69;4492397;31;33342;-84
2022/06/20 06:58:36;;;;;;;3.33;2.67;;;;;;;29.03;36.94;99446.59;4474331;31;33141;-85
2022/06/20 07:01:32;;;;;;;4.70;2.30;;;;;;;29.17;36.00;99437.50;4492991;31;33865;-85
2022/06/20 07:04:25;;;;;;;4.15;2.67;;;;;;;29.15;36.09;99426.00;4473958;31;32311;-83
2022/06/20 07:09:48;;;;;;;4.97;2.30;;;;;;;29.13;35.99;99422.63;4483901;31;33810;-84
2022/06/20 07:12:28;;;;;;;3.30;3.00;;;;;;;29.41;35.58;99414.50;4466369;31;32468;-83
2022/06/20 07:15:15;;;;;;;3.10;2.42;;;;;;;29.28;36.36;99425.25;4500793;31;33931;-84
2022/06/20 07:17:59;;;;;;;3.78;2.85;;;;;;;29.47;35.68;99410.97;4490103;31;33598;-84
2022/06/20 07:20:34;;;;;;;3.90;2.87;;;;;;;29.25;36.15;99398.47;4484819;32;33695;-84
2022/06/20 07:23:05;;;;;;;4.87;3.67;;;;;;;29.27;37.51;99410.81;4495443;31;34515;-84
2022/06/20 07:25:48;;;;;;;5.95;2.90;;;;;;;29.09;37.20;99405.84;4498408;31;33656;-84
2022/06/20 07:28:38;;;;;;;5.47;2.97;;;;;;;29.76;36.49;99400.94;4479152;31;33734;-84
2022/06/20 07:31:13;;;;;;;3.00;2.70;;;;;;;29.45;36.86;99409.50;4498565;31;33385;-84
2022/06/20 07:33:50;;;;;;;7.97;3.10;;;;;;;29.64;35.72;99407.97;4473876;31;33590;-84
2022/06/20 07:36:29;;;;;;;10.13;2.80;;;;;;;29.51;35.89;99403.25;4479940;32;33815;-84
2022/06/20 07:39:03;;;;;;;8.45;3.42;;;;;;;29.76;35.01;99388.16;4479821;32;32943;-83
2022/06/20 07:41:45;;;;;;;4.40;2.92;;;;;;;29.78;36.30;99383.37;4459288;32;34301;-84
2022/06/20 07:44:39;;;;;;;3.78;3.10;;;;;;;29.62;36.38;99383.69;4468157;32;32744;-84
2022/06/20 07:47:27;;;;;;;5.22;2.60;;;;;;;29.28;37.36;99385.31;4472438;32;33451;-84
2022/06/20 07:49:56;;;;;;;8.07;3.67;;;;;;;29.57;36.61;99375.28;4497312;31;34441;-84
2022/06/20 07:53:18;;;;;;;6.65;3.28;;;;;;;29.46;37.68;99381.25;4477093;32;33083;-84
2022/06/20 07:55:59;;;;;;;8.18;4.15;;;;;;;30.02;37.42;99373.00;4477111;32;33404;-84
2022/06/20 07:58:52;;;;;;;5.43;3.85;;;;;;;29.93;36.24;99379.66;4475817;32;33647;-84
2022/06/20 08:01:35;;;;;;;6.35;3.03;;;;;;;30.18;36.25;99386.28;4485220;32;33728;-84
2022/06/20 08:04:09;;;;;;;6.45;3.20;;;;;;;30.60;36.44;99384.31;4461386;32;33930;-83
2022/06/20 08:06:49;;;;;;;8.40;3.90;;;;;;;30.33;36.08;99373.34;4479495;31;33527;-83
2022/06/20 08:09:31;;;;;;;8.18;3.37;;;;;;;30.35;35.57;99374.00;4492305;31;34530;-83
2022/06/20 08:12:24;;;;;;;5.35;3.35;;;;;;;30.26;36.28;99374.38;4486672;31;32767;-84
2022/06/20 08:15:00;;;;;;;4.10;3.30;;;;;;;30.60;35.45;99370.69;4451648;32;34440;-83
2022/06/20 08:17:30;;;;;;;4.72;3.33;;;;;;;30.58;36.26;99370.06;4474874;31;32854;-84
2022/06/20 08:20:01;;;;;;;4.85;3.35;;;;;;;31.26;35.45;99354.38;4446058;32;32405;-84
2022/06/20 08:22:43;;;;;;;5.57;3.17;;;;;;;31.23;35.34;99360.25;4447254;32;32888;-83
2022/06/20 08:25:25;;;;;;;4.62;3.97;;;;;;;31.33;34.47;99363.44;4456928;32;33182;-83
2022/06/20 08:28:23;;;;;;;9.27;4.35;;;;;;;31.69;33.09;99358.53;4447146;32;32508;-84
2022/06/20 08:31:01;;;;;;;5.20;3.55;;;;;;;31.36;34.07;99354.81;4435652;32;32119;-83
2022/06/20 08:34:14;;;;;;;3.65;3.30;;;;;;;31.91;33.67;99350.94;4457026;32;33590;-83
2022/06/20 08:36:50;;;;;;;6.78;3.53;;;;;;;31.50;33.95;99354.81;4471178;32;33145;-83
2022/06/20 08:39:32;;;;;;;4.87;3.75;;;;;;;31.42;33.34;99346.84;4442590;32;33123;-83
2022/06/20 08:42:29;;;;;;;4.37;3.22;;;;;;;31.55;34.47;99346.81;4467813;32;33510;-83
2022/06/20 08:45:28;;;;;;;8.05;3.83;;;;;;;31.68;35.09;99346.78;4476823;31;34494;-83
2022/06/20 08:48:33;;;;;;;3.85;3.45;;;;;;;31.91;33.74;99346.31;4458954;32;33599;-83
2022/06/20 08:51:13;;;;;;;11.65;3.95;;;;;;;32.53;32.84;99346.66;4470093;32;33512;-83
2022/06/20 08:54:01;;;;;;;10.68;3.67;;;;;;;32.59;31.97;99348.50;4447187;31;32629;-83
2022/06/20 08:57:15;;;;;;;4.90;2.85;;;;;;;32.50;31.80;99339.72;4456788;32;33065;-84
2022/06/20 08:59:48;;;;;;;3.90;3.08;;;;;;;32.18;32.33;99341.53;4393365;32;33810;-83
2022/06/20 09:02:53;;;;;;;6.18;3.22;;;;;;;32.77;31.88;99336.81;4458727;32;32667;-85
2022/06/20 09:05:26;;;;;;;4.72;3.65;;;;;;;32.10;33.60;99337.19;4470110;31;33398;-84
2022/06/20 09:08:21;;;;;;;6.82;3.20;;;;;;;32.68;32.22;99319.81;4452962;32;34183;-84
2022/06/20 09:10:56;;;;;;;6.43;3.50;;;;;;;32.63;32.29;99325.13;4433297;32;252016;-84
2022/06/20 09:13:36;;;;;;;4.07;3.20;;;;;;;32.94;30.72;99320.69;4475462;31;33895;-84
2022/06/20 09:16:17;;;;;;;5.85;3.15;;;;;;;32.79;31.39;99310.88;4493765;31;34024;-84
2022/06/20 09:21:56;;;;;;;4.20;3.65;;;;;;;33.04;31.73;99302.69;4491585;31;33048;-84
2022/06/20 09:24:44;;;;;;;5.45;2.78;;;;;;;33.55;29.42;99287.06;4479623;31;32840;-84
2022/06/20 09:27:24;;;;;;;4.72;3.03;;;;;;;33.47;29.62;99285.47;4488817;31;32997;-84
2022/06/20 09:33:10;;;;;;;5.75;3.20;;;;;;;33.21;30.84;99286.56;4479990;31;33341;-84
2022/06/20 09:36:06;;;;;;;3.37;2.97;;;;;;;33.84;28.66;99269.81;4490070;31;33123;-83
2022/06/20 09:38:47;;;;;;;3.28;3.08;;;;;;;33.08;29.75;99259.34;4480365;31;33433;-83
2022/06/20 09:41:22;;;;;;;;;;;;;;;32.92;29.74;99262.66;4480122;31;33206;-83
2022/06/20 09:43:54;;;;;;;6.82;3.00;;;;;;;32.76;29.89;99262.16;4463147;31;35026;-84
2022/06/20 09:46:36;;;;;;;4.00;3.03;;;;;;;33.24;32.61;99253.28;4478161;31;33349;-84
2022/06/20 09:49:26;;;;;;;3.35;3.05;;;;;;;33.07;30.80;99257.66;4474324;31;33626;-84
2022/06/20 09:52:44;;;;;;;3.53;2.72;;;;;;;33.24;29.76;99253.28;4474270;31;34352;-84
2022/06/20 09:55:31;;;;;;;2.97;2.67;;;;;;;33.69;29.17;99268.56;4482492;31;34222;-84
2022/06/20 09:58:34;;;;;;;5.47;3.00;;;;;;;33.61;29.14;99247.81;4488019;31;32876;-83
2022/06/20 10:01:27;;;;;;;3.40;3.10;;;;;;;33.79;28.33;99250.50;4476612;31;35204;-83
2022/06/20 10:04:17;;;;;;;3.80;3.03;;;;;;;34.38;27.45;99248.84;4488769;31;33622;-82
2022/06/20 10:06:54;;;;;;;3.20;2.90;;;;;;;34.60;27.92;99237.34;4489464;31;34018;-82
2022/06/20 10:09:33;;;;;;;5.10;3.33;;;;;;;34.36;28.36;99229.06;4493553;31;33800;-82
2022/06/20 10:12:12;;;;;;;5.18;3.17;;;;;;;33.42;28.86;99241.47;4481053;31;33469;-81
2022/06/20 10:15:09;;;;;;;3.50;3.15;;;;;;;33.95;28.53;99232.66;4480014;31;33671;-82
2022/06/20 10:20:58;;;;;;;6.32;3.17;;;;;;;33.47;28.94;99230.75;4493419;31;34474;-82
2022/06/20 10:24:10;;;;;;;3.35;3.05;;;;;;;33.60;30.86;99229.72;4496945;31;31134;-82
2022/06/20 10:27:02;;;;;;;4.07;2.95;;;;;;;34.32;28.99;99227.84;4490648;31;37757;-82
2022/06/20 10:29:45;;;;;;;3.25;3.05;;;;;;;33.99;26.90;99230.25;4473152;31;33730;-82
2022/06/20 10:32:25;;;;;;;4.00;3.40;;;;;;;34.07;27.33;99229.94;4490314;31;33737;-83
2022/06/20 10:35:06;;;;;;;2.92;2.72;;;;;;;34.17;25.95;99216.50;4500249;31;33481;-86
2022/06/20 10:37:47;;;;;;;2.80;2.60;;;;;;;34.19;26.55;99211.62;4498399;31;34178;-82
2022/06/20 10:40:29;;;;;;;2.95;2.70;;;;;;;33.61;26.82;99223.16;4483073;31;34135;-83
2022/06/20 10:43:07;;;;;;;2.58;2.30;;;;;;;34.04;26.53;99208.47;4491782;31;33955;-83
2022/06/20 10:45:52;;;;;;;3.35;2.40;;;;;;;34.10;25.83;99202.09;4485157;31;32319;-84
2022/06/20 10:48:50;;;;;;;5.75;2.62;;;;;;;34.61;26.05;99208.84;4491692;31;34700;-84
2022/06/20 10:51:32;;;;;;;3.22;2.78;;;;;;;34.54;25.95;99214.47;4486889;31;34751;-84
2022/06/20 10:54:11;;;;;;;7.80;2.58;;;;;;;34.07;25.26;99214.34;4479652;31;32544;-84
2022/06/20 10:57:12;;;;;;;3.05;2.85;;;;;;;33.93;25.10;99212.00;4465319;31;32686;-84
2022/06/20 10:59:52;;;;;;;4.70;2.75;;;;;;;34.02;25.86;99205.16;4465361;31;34116;-83
2022/06/20 11:02:57;;;;;;;7.80;2.67;;;;;;;34.51;25.62;99208.59;4473156;31;32735;-83
2022/06/20 11:05:46;;;;;;;4.93;2.35;;;;;;;34.17;23.27;99191.84;4478678;31;33404;-83
2022/06/20 11:08:26;;;;;;;1.85;1.75;;;;;;;34.30;25.58;99194.38;4479787;31;33311;-84
2022/06/20 11:11:54;;;;;;;5.60;2.30;;;;;;;34.76;24.04;99192.78;4492773;31;33750;-84
2022/06/20 11:15:14;;;;;;;4.95;2.20;;;;;;;34.98;22.52;99193.00;4419895;32;32682;-84
2022/06/20 11:18:47;;;;;;;4.22;2.33;;;;;;;35.21;23.19;99181.16;4417422;32;34531;-84
2022/06/20 11:21:15;;;;;;;5.05;2.30;;;;;;;35.14;24.33;99183.22;4435861;32;33694;-84
2022/06/20 11:24:20;;;;;;;2.37;2.07;;;;;;;35.15;24.75;99176.66;4475212;32;33615;-84
2022/06/20 11:26:58;;;;;;;5.45;2.80;;;;;;;35.42;23.64;99171.44;4452579;32;32586;-84
2022/06/20 11:29:45;;;;;;;3.20;2.95;;;;;;;35.29;23.29;99177.22;4467234;32;33892;-84
2022/06/20 11:32:32;;;;;;;2.60;1.83;;;;;;;35.03;24.21;99173.91;4466700;32;32305;-84
2022/06/20 11:35:55;;;;;;;2.75;2.28;;;;;;;35.19;23.42;99182.50;4452355;32;33147;-84
2022/06/20 11:39:01;;;;;;;5.65;2.30;;;;;;;35.10;22.34;99173.81;4400309;32;33278;-84
2022/06/20 11:41:44;;;;;;;2.35;2.22;;;;;;;34.96;21.55;99188.84;4468570;32;33135;-84
2022/06/20 11:44:30;;;;;;;2.22;2.03;;;;;;;34.98;22.14;99186.69;4457865;31;31946;-83
2022/06/20 11:47:29;;;;;;;2.47;2.28;;;;;;;34.93;21.55;99175.56;4471182;32;32476;-84
2022/06/20 11:50:30;;;;;;;2.40;1.83;;;;;;;35.69;20.96;99181.88;4448661;32;33788;-84
2022/06/20 11:53:34;;;;;;;2.10;1.60;;;;;;;35.88;21.49;99172.34;4455049;32;33775;-85
2022/06/20 11:56:12;;;;;;;3.40;2.15;;;;;;;35.55;21.77;99175.84;4454584;32;32588;-85
2022/06/20 11:59:12;;;;;;;5.10;2.35;;;;;;;35.39;21.30;99183.75;4445020;31;32839;-84
2022/06/20 12:01:51;;;;;;;2.10;1.90;;;;;;;35.51;22.82;99185.63;4460366;32;33601;-84
2022/06/20 12:04:59;;;;;;;4.87;2.03;;;;;;;35.64;21.56;99172.44;4467565;31;33802;-85
2022/06/20 12:08:06;;;;;;;2.85;2.20;;;;;;;35.89;21.60;99165.75;4468842;32;33397;-84
2022/06/20 12:11:06;;;;;;;2.35;2.15;;;;;;;35.34;22.16;99169.91;4447446;31;33951;-84
2022/06/20 12:13:46;;;;;;;2.67;2.37;;;;;;;35.83;22.25;99164.84;4470878;31;33581;-84
2022/06/20 12:16:35;;;;;;;2.08;1.92;;;;;;;35.51;20.30;99170.00;4474561;31;33540;-84
2022/06/20 12:25:23;;;;;;;4.32;1.80;;;;;;;36.07;20.82;99159.25;4478035;31;32745;-84
2022/06/20 12:27:54;;;;;;;3.45;2.20;;;;;;;36.78;21.37;99141.13;4487396;31;33669;-85
2022/06/20 12:30:22;;;;;;;5.28;2.50;;;;;;;36.60;22.09;99139.47;4457922;31;32837;-85
2022/06/20 12:32:58;;;;;;;2.47;2.10;;;;;;;36.12;21.11;99142.84;4480377;31;33151;-85
2022/06/20 12:35:32;;;;;;;2.28;1.85;;;;;;;36.29;20.46;99140.94;4471013;31;34747;-84
2022/06/20 12:38:12;;;;;;;6.60;2.33;;;;;;;36.75;20.00;99130.66;4459618;31;33215;-86
2022/06/20 12:40:47;;;;;;;2.30;1.80;;;;;;;36.35;22.36;99131.66;4481594;31;31992;-85
2022/06/20 12:43:23;;;;;;;3.22;1.85;;;;;;;37.02;20.51;99129.91;4474017;31;32674;-85
2022/06/20 12:46:13;;;;;;;2.08;1.90;;;;;;;36.95;21.25;99123.78;4470797;31;33594;-85
2022/06/20 12:49:09;;;;;;;3.40;2.28;;;;;;;36.73;19.35;99116.28;4470965;31;32433;-84
2022/06/20 12:54:53;;;;;;;4.75;2.25;;;;;;;36.47;20.17;99111.53;4485467;31;33880;-85
2022/06/20 12:57:32;;;;;;;2.53;2.33;;;;;;;36.17;20.61;99127.25;4478642;31;33049;-85
2022/06/20 13:00:33;;;;;;;2.40;2.17;;;;;;;36.27;20.07;99123.00;4472670;31;33128;-85
2022/06/20 13:03:21;;;;;;;6.57;2.05;;;;;;;36.58;19.76;99116.09;4475372;31;31871;-85
2022/06/20 13:06:18;;;;;;;4.62;1.80;;;;;;;36.46;19.55;99126.34;4499124;31;33857;-84
2022/06/20 13:08:55;;;;;;;8.02;2.55;;;;;;;36.35;21.69;99122.59;4465827;31;33942;-84
2022/06/20 13:14:50;;;;;;;2.28;2.08;;;;;;;36.59;20.43;99110.31;4477554;32;32672;-84
2022/06/20 13:17:42;;;;;;;3.85;2.15;;;;;;;36.59;22.27;99112.25;4482381;31;32869;-84
2022/06/20 13:20:35;;;;;;;2.40;1.90;;;;;;;36.55;19.50;99111.91;4484311;31;33525;-84
2022/06/20 13:23:26;;;;;;;5.43;2.10;;;;;;;36.57;19.85;99117.19;4464323;32;33087;-84
2022/06/20 13:26:33;;;;;;;4.70;2.20;;;;;;;36.55;21.81;99108.34;4480549;31;31995;-84
2022/06/20 13:29:29;;;;;;;3.00;2.20;;;;;;;36.74;22.75;99101.44;4487380;31;34571;-84
2022/06/20 13:32:34;;;;;;;4.65;1.87;;;;;;;36.83;21.25;99104.59;4462534;31;33596;-84
2022/06/20 13:35:42;;;;;;;2.53;2.25;;;;;;;36.88;21.42;99094.47;4494855;31;34680;-84
2022/06/20 13:38:36;;;;;;;3.80;1.77;;;;;;;36.95;19.14;99088.84;4458219;31;32602;-84
2022/06/20 13:41:23;;;;;;;4.50;1.85;;;;;;;36.52;20.05;99095.13;4486809;31;33795;-83
2022/06/20 13:44:33;;;;;;;6.95;2.97;;;;;;;36.75;19.09;99089.38;4489476;31;35542;-83